NWS Home NWS Lubbock West Texas Mesonet Latest Conditions as of 1040 AM, Fri Jun 23, 2017

Latest   N   C   S   Daily Sum   3hrΔ   24hrΔ   Soil Data 
Site Map   24hr Precip   72hr Precip   Google Plot


Station Time of Last Temp Dew Pt. RH Wind Direction Wind Speed Wind Gust Max Wind Max Temp Min Temp Max RH Min RH Altimeter 1HR Rain Today's Rain Solar Rad
Abernathy 5ENE  10:35 AM 87 58 39% SE911 26 mph 20° @ 0400 AM 87 73 64 32 29.91" 0 0 683
Aiken 3WSW  10:35 AM 87 63 45% NE79 48 mph 55° @ 1221 AM 89 69 80 27 29.94" 0 0 709
Amarillo 15NNW   10:35 AM 71 61 72% N3034 35 mph 25° @ 1015 AM 84 70 73 41 30.05" 0 0 221
Amarillo 7SSE  10:35 AM 74 63 66% N2428 34 mph 17° @ 1024 AM 79 67 79 52 30.03" 0 0 648
Amarillo 9NNE  10:35 AM 72 62 69% N2529 32 mph 24° @ 1031 AM 84 69 72 43 30.04" 0 0 550
Amherst 1NE  10:35 AM 86 56 38% NE610 22 mph 44° @ 0805 AM 86 72 64 38 29.95" 0 0 661
Andrews 2E  10:35 AM 93 52 26% S1217 21 mph 171° @ 0945 AM 93 79 42 26 29.88" 0 0 631
Anton 6SSW  10:35 AM 86 57 39% SE48 38 mph 299° @ 0435 AM 86 76 56 33 29.92" 0 0 687
Aspermont 3NE  10:35 AM 94 57 30% S49 17 mph 138° @ 0340 AM 94 70 64 30 29.80" 0 0 703
Big Bend NP - Persimmon Gap  10:35 AM 90 56 31% NE1417 18 mph 34° @ 1018 AM 91 80 42 27 29.85" 0 0 662
Big Lake 1WNW  10:35 AM 93 61 34% S1517 21 mph 169° @ 1024 AM 93 76 54 34 29.88" 0 0 599
Bootleg 11WNW  10:35 AM 77 60 57% N2427 28 mph 360° @ 1033 AM 81 62 89 38 30.09" 0 0 561
Boys Ranch 1WSW  10:35 AM 73 60 65% NE2933 39 mph 35° @ 1031 AM 81 67 79 45 30.07" 0 0 673
Brownfield 2S  10:35 AM 90 55 31% SE28 33 mph 188° @ 0635 AM 91 79 53 20 29.91" 0 0 679
Canadian 6E  10:35 AM 75 65 70% N1519 35 mph 338° @ 1203 AM 82 69 75 49 29.98" 0 0 704
Caprock Canyons State Park  10:35 AM 86 61 43% NE1317 17 mph 28° @ 1035 AM 87 72 69 39 29.90" 0 0 587
Childress 2NNE  10:35 AM 91 61 39% N1723 23 mph 1° @ 1035 AM 91 72 82 39 29.85" 0 0 397
Clarendon 2WSW  10:35 AM 78 62 60% N2329 33 mph 39° @ 1240 AM 82 73 71 42 29.94" 0.01 0.01 490
Claude 12SW  10:35 AM 79 60 52% N2533 33 mph 6° @ 1035 AM 84 70 64 39 29.99" 0 0 682
Clyde 2WNW  10:35 AM 91 65 42% S710 19 mph 160° @ 0529 AM 91 72 79 42 29.84" 0 0 696
Coyanosa 2N  10:35 AM 87 59 40% E1620 30 mph 89° @ 0959 AM 91 82 44 31 29.82" 0 0 245
Crowell 1E  10:35 AM 89 68 50% SE23 14 mph 23° @ 0711 AM 89 73 83 50 29.80" 0 0 293
Dell City  10:35 AM 90 49 25% SE55 17 mph 32° @ 0102 AM 93 71 55 20 29.90" 0 0 650
Denver City 7WNW  10:35 AM 91 51 26% S1014 22 mph 142° @ 1220 AM 91 70 64 25 29.91" 0 0 669
Dimmitt 2NE  10:35 AM 84 59 44% N1822 24 mph 9° @ 1025 AM 84 67 71 36 29.99" 0 0 543
Dora NM 2SW  10:35 AM 88 51 29% E812 36 mph 186° @ 0135 AM 88 67 53 26 30.00" 0 0 585
Dozier 3W  10:35 AM 78 65 64% N1315 31 mph 345° @ 0434 AM 82 70 85 48 29.93" 0.01 0.10 344
Floydada 2NNE  10:35 AM 87 58 38% E710 24 mph 341° @ 0355 AM 87 70 68 27 29.89" 0 0 697
Fluvanna 3WNW  10:35 AM 92 54 28% S1316 23 mph 294° @ 0650 AM 92 76 51 28 29.85" 0 0 721
Fort Chadbourne  10:35 AM 91 63 39% SW57 12 mph 202° @ 1012 AM 91 70 67 38 29.84" 0 0 680
Fort Lancaster  10:35 AM 92 65 41% SE912 16 mph 136° @ 1019 AM 92 81 54 36 29.83" 0 0 667
Fort Lewis CO  10:35 AM 79 27 15% NW1013 18 mph 299° @ 0942 AM 79 47 62 11 30.27" 0 0 746
Fort McKavett  10:35 AM 92 66 42% S810 14 mph 169° @ 0807 AM 93 73 72 42 29.86" 0 0 690
Friona 2NE  10:35 AM 79 62 59% N2230 30 mph 17° @ 1035 AM 79 63 89 56 30.02" 0 0 574
Gail 2ESE  10:35 AM 94 59 33% S712 20 mph 138° @ 0930 AM 94 72 67 33 29.84" 0 0 760
Goodlett 3W  10:35 AM 92 59 34% NE46 20 mph 21° @ 0615 AM 92 72 78 34 29.81" 0 0 679
Goodnight  10:35 AM 81 64 56% N1926 29 mph 5° @ 1015 AM 82 71 68 44 29.99" 0 0 643
Graham 5SSW  10:35 AM 91 54 29% S1521 26 mph 314° @ 0605 AM 92 75 51 29 29.86" 0 0 211
Guadalupe Mtns Natl Park  10:34 AM 85 47 27% E911 27 mph 204° @ 0759 AM 85 75 39 21 30.07" 0 0 428
Guthrie 10WSW  10:35 AM 92 58 32% E36 17 mph 18° @ 0545 AM 92 72 60 32 29.81" 0 0 605
Hart 3N  10:35 AM 85 59 43% NE1823 29 mph 358° @ 0305 AM 85 69 71 37 29.96" 0 0 623
Haskell 1NW  10:35 AM 89 59 37% S68 13 mph 137° @ 1215 AM 89 72 76 37 29.80" 0 0 657
Hereford 2NW  10:35 AM 78 59 54% N2331 31 mph 16° @ 1035 AM 81 65 80 40 30.02" 0 0.06 620
Hobbs NM 5NW  10:35 AM 90 51 27% S1012 19 mph 162° @ 0923 AM 90 77 42 21 29.95" 0 0 647
Jayton 1SSE  10:35 AM 89 56 33% SE57 17 mph 12° @ 0620 AM 89 74 57 33 29.81" 0 0 270
Junction 1SSW  10:35 AM 91 69 48% SW68 12 mph 194° @ 0952 AM 91 70 83 48 29.83" 0 0 596
Knox City 3NW  10:35 AM 94 59 32% SE710 13 mph 144° @ 1205 AM 94 73 67 32 29.79" 0 0 616
Lake Alan Henry 1NW  10:35 AM 94 56 29% E45 21 mph 328° @ 0632 AM 95 75 49 28 29.81" 0 0 606
Lamesa 2SE  10:35 AM 90 55 31% SE610 24 mph 145° @ 0145 AM 90 78 60 29 29.89" 0 0 601
Levelland 4S  10:35 AM 88 52 29% E69 30 mph 292° @ 0430 AM 90 78 47 18 29.93" 0 0 672
Lomax 1SSE  10:35 AM 94 59 31% SE1618 26 mph 173° @ 1018 AM 95 77 53 30 29.84" 0 0 444
Lubbock 3WNW TTU  10:35 AM 86 56 36% E24 22 mph 96° @ 1245 AM 87 76 54 29 29.91" 0 0 678
McCamey 1SSW  10:35 AM 92 60 34% SE79 17 mph 135° @ 0632 AM 93 83 42 33 29.86" 0 0 436
McLean 1E  10:35 AM 78 61 59% N1825 27 mph 345° @ 1205 AM 82 69 83 44 29.96" 0 0.04 708
Memphis 1NE  10:35 AM 88 61 42% N1622 24 mph 19° @ 1030 AM 88 74 66 40 29.88" 0 0 540
Menard 2NW   10:35 AM 92 68 46% SW45 14 mph 211° @ 0922 AM 92 67 79 39 29.85" 0 0 656
Mertzon 3NNE  10:35 AM 94 62 34% S1012 18 mph 182° @ 0506 AM 97 76 57 33 29.84" 0 0 348
Morton 1ENE  10:35 AM 87 55 35% E810 42 mph 307° @ 0410 AM 91 71 64 17 29.95" 0 0.01 649
Muleshoe 2SSW  10:35 AM 82 60 49% NE69 24 mph 47° @ 0435 AM 82 66 84 43 29.97" 0 0 631
New Home  10:35 AM 90 58 34% SE34 31 mph 346° @ 0517 AM 91 76 57 32 29.92" 0 0 700
Northfield 1S  10:35 AM 88 62 43% N814 22 mph 138° @ 0130 AM 88 70 78 41 29.85" 0 0 579
O'Donnell 1N  10:35 AM 92 51 25% SW1115 28 mph 124° @ 0535 AM 93 77 47 15 29.88" 0 0 565
Odell 4ENE  10:35 AM 90 70 52% NE35 18 mph 349° @ 0635 AM 90 71 92 51 29.82" 0 0 615
Olton 6S  10:35 AM 85 58 41% NW13 32 mph 35° @ 0340 AM 85 70 72 40 29.94" 0 0 660
Paducah 10SW  10:35 AM 88 62 42% SE611 17 mph 18° @ 0450 AM 88 70 73 42 29.82" 0 0 582
Palo Duro Canyon SP Floor  10:35 AM 83 62 48% N1721 29 mph 351° @ 1017 AM 87 74 59 38 29.96" 0 0 612
Palo Duro Canyon State Park Rim  10:35 AM 79 61 54% N1824 29 mph 11° @ 1034 AM 85 72 60 34 30.01" 0 0 688
Pampa 2E  10:35 AM 72 63 75% N2432 34 mph 358° @ 0825 AM 79 68 83 58 30.01" 0 0 593
Panhandle 1SSW  10:35 AM 74 62 66% N2328 34 mph 335° @ 0304 AM 83 68 71 42 30.04" 0 0 638
Plains 3N  10:35 AM 89 56 34% NE69 25 mph 66° @ 0320 AM 89 73 60 27 29.93" 0.01 0.01 566
Plainview 1S  10:35 AM 86 61 43% NE510 29 mph 358° @ 0325 AM 86 71 69 31 29.92" 0 0 647
Post 1NE  10:35 AM 90 56 33% SE36 23 mph 231° @ 1220 AM 90 75 51 30 29.85" 0 0 491
Ralls 1SE  10:35 AM 87 56 34% SE510 20 mph 15° @ 0445 AM 87 71 63 34 29.89" 0 0 685
Reese Center  10:35 AM 86 54 35% SW46 32 mph 308° @ 0455 AM 89 75 57 23 29.92" 0 0 689
Roaring Springs 3N  10:35 AM 87 60 41% E48 17 mph 142° @ 0210 AM 87 71 69 41 29.86" 0 0 578
San Angelo 7NW  10:35 AM 94 60 32% S913 15 mph 180° @ 1025 AM 94 72 52 31 29.82" 0 0 639
Seagraves 1SW  10:35 AM 92 55 29% SE27 49 mph 146° @ 1205 AM 96 76 44 13 29.90" 0 0 606
Seminole 2NNE  10:35 AM 93 52 25% S1013 26 mph 29° @ 1215 AM 96 77 44 13 29.89" 0 0 674
Seymour 3NW  10:35 AM 94 73 53% S47 15 mph 169° @ 0950 AM 94 78 89 53 29.78" 0 0 706
Sierra Blanca 1SSE  10:35 AM 93 41 17% W1013 18 mph 231° @ 0459 AM 93 79 29 17 29.96" 0 0 668
Silverton 7ESE  10:35 AM 86 58 40% NE1518 23 mph 34° @ 0520 AM 87 70 67 38 29.93" 0 0 653
Slaton 2NE  10:35 AM 89 54 32% S712 18 mph 98° @ 0910 AM 89 76 48 31 29.89" 0 0 638
Snyder 3E  10:35 AM 93 57 30% S1221 21 mph 148° @ 0305 AM 93 75 55 30 29.82" 0 0 458
Snyder 3SSW  10:35 AM 91 59 34% S1115 19 mph 152° @ 0313 AM 92 75 54 32 29.82" 0 0 538
Spur 1W  10:35 AM 88 54 33% E68 16 mph 46° @ 0820 AM 88 73 57 33 29.83" 0 0 651
St. Lawrence 5SW  10:35 AM 91 58 34% S1520 21 mph 164° @ 0950 AM 91 77 45 33 29.85" 0 0 575
Stamford 5ESE  10:35 AM 92 61 35% S79 13 mph 131° @ 1214 AM 93 73 70 35 29.80" 0 0 707
Sterling City 4WSW  10:35 AM 92 60 35% S811 20 mph 160° @ 1021 AM 94 69 61 33 29.84" 0 0 288
Stinnett 1NNW  10:35 AM 67 63 87% N2527 34 mph 19° @ 0847 AM 77 66 87 57 30.09" 0 0.14 158
Sundown 8WSW  10:35 AM 90 53 29% NE610 46 mph 335° @ 0510 AM 90 75 42 21 29.93" 0 0 573
Sweetwater 11SW   10:35 AM 93 61 36% S1316 20 mph 143° @ 1226 AM 93 71 57 35 29.85" 0 0 703
Tahoka 3NNE  10:35 AM 93 57 31% SE79 30 mph 318° @ 0533 AM 93 74 53 31 29.89" 0 0 677
Tarzan 2WNW  10:35 AM 91 58 33% S1820 28 mph 318° @ 1204 AM 91 79 50 30 29.85" 0 0 741
Tatum NM 2SW  10:35 AM 93 53 26% S1115 20 mph 148° @ 0910 AM 93 68 75 26 29.95" 0 0 603
Throckmorton 1SW  10:35 AM 89 71 55% S47 10 mph 164° @ 0918 AM 89 68 95 55 29.80" 0 0 714
Tulia 2ENE  10:35 AM 86 58 40% NE1924 50 mph 318° @ 0405 AM 91 69 75 18 29.95" 0 0 596
Turkey 2WSW  10:35 AM 88 62 43% N1316 20 mph 62° @ 0535 AM 88 72 77 41 29.88" 0 0 649
Umbarger 3NNE  10:35 AM 76 61 60% N2731 52 mph 147° @ 0247 AM 86 65 80 28 30.03" 0 0 669
Vigo Park  10:35 AM 83 59 44% NE1619 25 mph 48° @ 0439 AM 84 68 73 43 29.97" 0 0 613
Wall 2E  10:35 AM 94 65 38% SW1214 19 mph 173° @ 0608 AM 94 74 59 36 29.83" 0 0 702
Welch  10:35 AM 91 58 33% SW23 28 mph 275° @ 1209 AM 92 78 56 22 29.91" 0 0 680
White River Lake 6NW  10:35 AM 88 56 35% E49 21 mph 3° @ 0525 AM 88 74 54 33 29.86" 0 0 732
Wolfforth 6SSW  10:35 AM 91 53 29% E25 27 mph 309° @ 0505 AM 91 75 58 23 29.91" 0 0.01 609

West Texas Mesonet Home   Site Map/Menu  NWS Lubbock Soil Data  Daily Summary Page  24hr Precip  72hr Precip  Google Plot